Nairobi/Wilson

Airport
ICAO code: 
HKNW
IATA Code: 
WIL
Summary
ICAO Region: 
AFI
Territory: 
Location: 
Nairobi, Nairobi
Serving: 
Nairobi
Elevation: 
5546 ft
Coordinates: 
Aerial View: 
1° 19' 26.112" S, 36° 48' 53.676" E
Airport RE: 
Hot and High Operations
Metar
Observation
HKNW 082100Z 10013KT 9999 BKN021 19/17 Q1022
Station
Nairobi / Wilson
Date/Time
2021-12-08 21:00:00
Wind direction
100°
Wind speed
13 kts
Lowest cloud amount
broken clouds
Temperature
19°C
Dew point
17°C
Humidity
88%
QNH
1022 hPa
Weather condition
n/a

Secondary Airport serving Nairobi, Kenya.

Climatology

Sub-tropical Highland climate (Köppen climate classification Cwb)

Runways

Designator Length Width Surface Rops
7/25 1462 22 ASP Yes/Yes
14/32 1540 23 ASP Yes/Yes
Airport map: 
Aerial View: 

SKYbrary Partners:

Safety knowledge contributed by: